createdAt,value
2022-12-14T00:01:53.955Z,99847.63
2022-12-14T00:04:21.932Z,99842.41
2022-12-14T00:06:49.937Z,99837.84
2022-12-14T00:09:19.271Z,99838.03
2022-12-14T00:11:47.258Z,99833.66
2022-12-14T00:14:15.363Z,99837.34
2022-12-14T00:16:43.478Z,99823.00
2022-12-14T00:19:12.391Z,99831.09
2022-12-14T00:21:40.343Z,99829.59
2022-12-14T00:24:08.492Z,99833.16
2022-12-14T00:26:37.906Z,99832.16
2022-12-14T00:29:05.894Z,99789.66
2022-12-14T00:31:33.931Z,99838.56
2022-12-14T00:34:02.190Z,99843.13
2022-12-14T00:36:31.455Z,99823.56
2022-12-14T00:38:59.875Z,99844.97
2022-12-14T00:41:27.864Z,99824.38
2022-12-14T00:43:57.293Z,99823.34
2022-12-14T00:46:25.418Z,99829.94
2022-12-14T00:48:53.567Z,99827.09
2022-12-14T00:51:23.068Z,99826.88
2022-12-14T00:53:50.986Z,99825.69
2022-12-14T00:56:18.874Z,99829.44
2022-12-14T00:58:51.754Z,99836.34
2022-12-14T01:01:21.953Z,99798.69
2022-12-14T01:03:50.172Z,99819.47
2022-12-14T01:06:20.189Z,99820.63
2022-12-14T01:08:49.016Z,99817.28
2022-12-14T01:11:16.944Z,99812.41
2022-12-14T01:13:44.976Z,99814.44
2022-12-14T01:16:17.926Z,99817.31
2022-12-14T01:18:47.456Z,99820.00
2022-12-14T01:21:17.757Z,99808.22
2022-12-14T01:23:46.763Z,99817.19
2022-12-14T01:26:16.734Z,99817.34
2022-12-14T01:28:45.900Z,99821.09
2022-12-14T01:31:15.848Z,99813.63
2022-12-14T01:33:44.801Z,99808.41
2022-12-14T01:36:16.702Z,99817.19
2022-12-14T01:38:45.305Z,99801.50
2022-12-14T01:41:25.099Z,99801.50
2022-12-14T01:43:54.801Z,99806.38
2022-12-14T01:46:29.393Z,99799.81
2022-12-14T01:49:01.571Z,99802.84
2022-12-14T01:51:32.673Z,99798.63
2022-12-14T01:54:03.663Z,99788.66
2022-12-14T01:56:33.711Z,99790.69
2022-12-14T01:59:07.353Z,99785.28
2022-12-14T02:01:35.880Z,99787.31
2022-12-14T02:04:05.014Z,99786.66
2022-12-14T02:06:36.902Z,99785.78
2022-12-14T02:09:09.068Z,99787.00
2022-12-14T02:11:44.543Z,99783.63
2022-12-14T02:14:12.556Z,99786.53
2022-12-14T02:16:41.667Z,99784.66
2022-12-14T02:19:09.750Z,99782.13
2022-12-14T02:21:55.510Z,99784.66
2022-12-14T02:24:44.119Z,99785.69
2022-12-14T02:27:27.181Z,99782.31
2022-12-14T02:30:08.337Z,99785.00
2022-12-14T02:32:59.593Z,99778.91
2022-12-14T02:35:39.611Z,99772.69
2022-12-14T02:38:19.466Z,99762.91
2022-12-14T02:40:56.147Z,99758.34
2022-12-14T02:43:32.656Z,99758.16
2022-12-14T02:46:10.964Z,99760.00
2022-12-14T02:48:43.086Z,99752.28
2022-12-14T02:51:22.831Z,99752.78
2022-12-14T02:53:57.953Z,99742.16
2022-12-14T02:56:34.986Z,99744.88
2022-12-14T02:59:06.035Z,99732.56
2022-12-14T03:01:37.880Z,99735.06
2022-12-14T03:04:07.244Z,99729.19
2022-12-14T03:06:35.252Z,99716.69
2022-12-14T03:09:06.011Z,99716.53
2022-12-14T03:11:38.425Z,99719.22
2022-12-14T03:14:11.215Z,99710.28
2022-12-14T03:16:44.179Z,99699.00
2022-12-14T03:19:18.938Z,99705.88
2022-12-14T03:21:50.263Z,99699.16
2022-12-14T03:24:22.385Z,99695.28
2022-12-14T03:26:55.868Z,99687.97
2022-12-14T03:29:28.440Z,99686.13
2022-12-14T03:32:00.564Z,99685.97
2022-12-14T03:34:32.191Z,99680.06
2022-12-14T03:37:05.660Z,99679.22
2022-12-14T03:39:35.518Z,99675.50
2022-12-14T03:42:11.523Z,99670.75
2022-12-14T03:44:49.082Z,99658.50
2022-12-14T03:47:44.931Z,99667.22
2022-12-14T03:50:17.776Z,99671.97
2022-12-14T03:52:54.022Z,99670.25
2022-12-14T03:55:29.776Z,99658.16
2022-12-14T03:58:12.260Z,99653.06
2022-12-14T04:00:46.220Z,99659.31
2022-12-14T04:03:24.129Z,99641.41
2022-12-14T04:05:56.293Z,99624.88
2022-12-14T04:08:37.280Z,99635.84
2022-12-14T04:11:26.237Z,99626.38
2022-12-14T04:14:17.906Z,99630.47
2022-12-14T04:17:06.476Z,99625.22
2022-12-14T04:19:42.551Z,99628.63
2022-12-14T04:22:14.772Z,99625.44
2022-12-14T04:25:05.325Z,99614.44
2022-12-14T04:27:38.406Z,99608.38
2022-12-14T04:30:09.148Z,99595.72
2022-12-14T04:32:42.278Z,99582.75
2022-12-14T04:35:19.199Z,99589.31
2022-12-14T04:37:53.668Z,99594.72
2022-12-14T04:40:25.655Z,99586.59
2022-12-14T04:42:56.783Z,99592.16
2022-12-14T04:45:31.135Z,99538.47
2022-12-14T04:48:09.672Z,99572.25
2022-12-14T04:50:43.805Z,99578.50
2022-12-14T04:53:15.077Z,99586.59
2022-12-14T04:55:50.104Z,99583.06
2022-12-14T04:58:23.280Z,99571.41
2022-12-14T05:01:05.392Z,99581.22
2022-12-14T05:03:37.105Z,99570.22
2022-12-14T05:06:16.231Z,99560.47
2022-12-14T05:09:03.194Z,99586.22
2022-12-14T05:14:30.795Z,99578.16
2022-12-14T05:17:03.435Z,99571.94
2022-12-14T05:19:34.823Z,99563.91
2022-12-14T05:22:08.036Z,99579.69
2022-12-14T05:24:36.123Z,99569.25
2022-12-14T05:27:04.055Z,99552.91
2022-12-14T05:29:32.088Z,99556.25
2022-12-14T05:32:00.709Z,99553.22
2022-12-14T05:34:28.739Z,99546.31
2022-12-14T05:36:56.689Z,99543.78
2022-12-14T05:39:26.042Z,99540.91
2022-12-14T05:41:54.606Z,99544.81
2022-12-14T05:44:22.736Z,99531.31
2022-12-14T05:46:50.655Z,99530.44
2022-12-14T05:49:18.638Z,99528.78
2022-12-14T05:51:46.633Z,99528.13
2022-12-14T05:54:14.583Z,99516.50
2022-12-14T05:56:43.973Z,99517.16
2022-12-14T05:59:15.626Z,99513.78
2022-12-14T06:01:44.365Z,99519.19
2022-12-14T06:04:13.353Z,99493.88
2022-12-14T06:06:41.392Z,99491.00
2022-12-14T06:09:11.360Z,99489.94
2022-12-14T06:11:41.079Z,99484.56
2022-12-14T06:14:11.456Z,99489.13
2022-12-14T06:16:41.283Z,99486.59
2022-12-14T06:19:09.500Z,99487.78
2022-12-14T06:21:40.027Z,99493.03
2022-12-14T06:24:09.272Z,99471.16
2022-12-14T06:26:40.862Z,99489.50
2022-12-14T06:29:16.596Z,99486.78
2022-12-14T06:31:44.657Z,99485.09
2022-12-14T06:34:12.825Z,99439.16
2022-12-14T06:36:43.528Z,99474.47
2022-12-14T06:39:13.948Z,99458.00
2022-12-14T06:41:42.150Z,99475.47
2022-12-14T06:44:13.442Z,99470.06
2022-12-14T06:46:41.807Z,99475.13
2022-12-14T06:49:14.872Z,99482.25
2022-12-14T06:51:43.365Z,99480.53
2022-12-14T06:54:12.535Z,99468.72
2022-12-14T06:56:41.032Z,99467.88
2022-12-14T06:59:09.685Z,99469.75
2022-12-14T07:01:39.688Z,99464.16
2022-12-14T07:04:08.713Z,99458.75
2022-12-14T07:06:38.717Z,99457.09
2022-12-14T07:09:08.317Z,99453.53
2022-12-14T07:11:36.551Z,99456.25
2022-12-14T07:14:06.341Z,99446.28
2022-12-14T07:16:36.962Z,99446.44
2022-12-14T07:19:06.628Z,99446.94
2022-12-14T07:21:34.865Z,99447.59
2022-12-14T07:24:03.334Z,99446.94
2022-12-14T07:26:31.428Z,99445.94
2022-12-14T07:29:00.559Z,99447.13
2022-12-14T07:31:30.495Z,99444.25
2022-12-14T07:34:01.047Z,99441.19
2022-12-14T07:36:33.066Z,99436.44
2022-12-14T07:39:01.038Z,99438.66
2022-12-14T07:41:32.460Z,99441.34
2022-12-14T07:44:01.925Z,99440.53
2022-12-14T07:46:32.262Z,99419.13
2022-12-14T07:49:01.711Z,99434.84
2022-12-14T07:51:33.244Z,99443.03
2022-12-14T07:54:02.012Z,99436.34
2022-12-14T07:56:31.723Z,99447.94
2022-12-14T07:59:01.149Z,99446.94
2022-12-14T08:01:31.439Z,99443.22
2022-12-14T08:04:01.099Z,99436.78
2022-12-14T08:06:30.726Z,99437.63
2022-12-14T08:08:59.279Z,99432.03
2022-12-14T08:11:27.440Z,99427.84
2022-12-14T08:13:55.696Z,99423.13
2022-12-14T08:16:24.530Z,99421.94
2022-12-14T08:18:54.295Z,99416.69
2022-12-14T08:21:23.271Z,99403.41
2022-12-14T08:23:54.480Z,99415.03
2022-12-14T08:26:23.716Z,99411.47
2022-12-14T08:28:51.693Z,99416.53
2022-12-14T08:31:21.716Z,99408.22
2022-12-14T08:33:50.882Z,99407.66
2022-12-14T08:36:22.426Z,99401.91
2022-12-14T08:38:55.373Z,99399.84
2022-12-14T08:41:24.034Z,99385.72
2022-12-14T08:43:56.499Z,99389.75
2022-12-14T08:46:25.748Z,99393.72
2022-12-14T08:48:55.424Z,99401.00
2022-12-14T08:51:24.759Z,99406.22
2022-12-14T08:53:55.507Z,99394.88
2022-12-14T08:56:26.202Z,99396.38
2022-12-14T08:58:54.816Z,99387.88
2022-12-14T09:01:30.337Z,99390.75
2022-12-14T09:04:05.025Z,99400.34
2022-12-14T09:06:35.457Z,99392.72
2022-12-14T09:09:08.057Z,99367.38
2022-12-14T09:11:38.872Z,99385.84
2022-12-14T09:14:07.513Z,99387.69
2022-12-14T09:16:35.674Z,99389.56
2022-12-14T09:19:03.747Z,99393.09
2022-12-14T09:21:32.342Z,99388.06
2022-12-14T09:24:00.488Z,99385.34
2022-12-14T09:26:30.744Z,99381.84
2022-12-14T09:28:59.056Z,99384.91
2022-12-14T09:31:28.876Z,99381.56
2022-12-14T09:33:57.362Z,99385.28
2022-12-14T09:36:28.639Z,99379.03
2022-12-14T09:38:57.802Z,99382.56
2022-12-14T09:41:38.720Z,99362.16
2022-12-14T09:44:18.737Z,99358.53
2022-12-14T09:46:57.404Z,99368.84
2022-12-14T09:49:29.384Z,99379.00
2022-12-14T09:52:01.449Z,99374.81
2022-12-14T09:54:32.996Z,99362.31
2022-12-14T09:57:08.898Z,99357.28
2022-12-14T09:59:36.950Z,99369.28
2022-12-14T10:02:31.704Z,99369.94
2022-12-14T10:05:21.107Z,99366.41
2022-12-14T10:07:59.663Z,99332.56
2022-12-14T10:10:32.858Z,99366.03
2022-12-14T10:13:11.177Z,99366.50
2022-12-14T10:15:45.081Z,99359.41
2022-12-14T10:18:58.815Z,99354.22
2022-12-14T10:21:35.071Z,99359.81
2022-12-14T10:24:06.193Z,99356.72
2022-12-14T10:26:42.580Z,99353.66
2022-12-14T10:29:18.663Z,99353.84
2022-12-14T10:31:56.800Z,99353.66
2022-12-14T10:34:29.456Z,99348.63
2022-12-14T10:37:07.480Z,99348.25
2022-12-14T10:39:49.590Z,99359.25
2022-12-14T10:42:25.620Z,99344.91
2022-12-14T10:45:39.231Z,99292.50
2022-12-14T10:48:05.078Z,99341.56
2022-12-14T10:50:50.036Z,99344.06
2022-12-14T10:53:25.134Z,99344.91
2022-12-14T10:55:57.921Z,99346.97
2022-12-14T10:58:26.827Z,99332.97
2022-12-14T11:00:56.539Z,99336.16
2022-12-14T11:03:24.616Z,99293.50
2022-12-14T11:05:59.719Z,99317.69
2022-12-14T11:08:43.851Z,99325.16
2022-12-14T11:11:19.693Z,99325.00
2022-12-14T11:13:53.112Z,99334.59
2022-12-14T11:16:35.651Z,99336.25
2022-12-14T11:19:06.877Z,99311.75
2022-12-14T11:21:39.262Z,99339.50
2022-12-14T11:24:08.380Z,99339.34
2022-12-14T11:26:39.182Z,99335.59
2022-12-14T11:29:17.371Z,99330.19
2022-12-14T11:31:48.075Z,99327.50
2022-12-14T11:34:26.641Z,99307.84
2022-12-14T11:36:54.775Z,99322.94
2022-12-14T11:39:24.111Z,99336.38
2022-12-14T11:42:00.858Z,99327.06
2022-12-14T11:44:37.325Z,99329.38
2022-12-14T11:47:12.691Z,99330.41
2022-12-14T11:49:46.091Z,99343.25
2022-12-14T11:52:17.191Z,99336.38
2022-12-14T11:54:49.746Z,99337.84
2022-12-14T11:57:26.506Z,99340.38
2022-12-14T11:59:57.695Z,99344.09
2022-12-14T12:02:31.462Z,99342.69
2022-12-14T12:05:05.797Z,99339.81
2022-12-14T12:07:35.968Z,99342.81
2022-12-14T12:10:15.720Z,99340.94
2022-12-14T12:12:54.345Z,99336.19
2022-12-14T12:15:26.268Z,99339.53
2022-12-14T12:18:00.847Z,99334.50
2022-12-14T12:20:35.528Z,99322.50
2022-12-14T12:23:11.097Z,99333.78
2022-12-14T12:25:41.224Z,99335.63
2022-12-14T12:28:16.794Z,99334.22
2022-12-14T12:30:50.176Z,99349.22
2022-12-14T12:33:27.805Z,99348.22
2022-12-14T12:35:56.947Z,99346.25
2022-12-14T12:38:42.974Z,99294.06
2022-12-14T12:41:29.200Z,99353.06
2022-12-14T12:44:06.338Z,99346.81
2022-12-14T12:46:53.551Z,99343.47
2022-12-14T12:49:28.149Z,99351.94
2022-12-14T12:52:00.788Z,99360.22
2022-12-14T12:54:32.316Z,99361.31
2022-12-14T12:57:03.553Z,99356.75
2022-12-14T12:59:37.651Z,99353.03
2022-12-14T13:02:19.643Z,99342.69
2022-12-14T13:04:53.034Z,99345.69
2022-12-14T13:07:29.507Z,99336.66
2022-12-14T13:10:05.895Z,99328.00
2022-12-14T13:12:38.475Z,99327.81
2022-12-14T13:15:16.423Z,99337.41
2022-12-14T13:17:49.387Z,99332.63
2022-12-14T13:20:23.561Z,99326.88
2022-12-14T13:22:52.108Z,99328.94
2022-12-14T13:25:25.131Z,99321.47
2022-12-14T13:28:07.013Z,99322.31
2022-12-14T13:30:52.477Z,99323.31
2022-12-14T13:33:53.552Z,99320.97
2022-12-14T13:36:49.304Z,99329.94
2022-12-14T13:39:39.747Z,99319.13
2022-12-14T13:42:09.677Z,99324.72
2022-12-14T13:44:56.005Z,99322.88
2022-12-14T13:47:30.431Z,99327.44
2022-12-14T13:52:51.835Z,99329.59
2022-12-14T13:55:32.050Z,99321.47
2022-12-14T13:58:17.433Z,99323.91
2022-12-14T14:00:58.417Z,99326.59
2022-12-14T14:04:14.491Z,99338.63
2022-12-14T14:06:43.322Z,99301.63
2022-12-14T14:10:02.100Z,99334.44
2022-12-14T14:12:41.794Z,99337.00
2022-12-14T14:15:38.145Z,99349.50
2022-12-14T14:18:17.157Z,99344.09
2022-12-14T14:20:47.837Z,99336.00
2022-12-14T14:23:57.346Z,99322.03
2022-12-14T14:26:29.261Z,99323.88
2022-12-14T14:29:25.961Z,99337.38
2022-12-14T14:32:01.803Z,99341.94
2022-12-14T14:34:46.915Z,99339.06
2022-12-14T14:37:27.003Z,99336.72
2022-12-14T14:40:13.459Z,99339.63
2022-12-14T14:42:54.186Z,99342.69
2022-12-14T14:45:38.894Z,99342.84
2022-12-14T14:48:20.359Z,99339.50
2022-12-14T14:50:50.689Z,99335.50
2022-12-14T14:53:31.205Z,99322.00
2022-12-14T14:56:36.145Z,99317.97
2022-12-14T14:59:43.840Z,99326.63
2022-12-14T15:02:35.193Z,99320.41
2022-12-14T15:05:40.824Z,99311.44
2022-12-14T15:07:55.769Z,99323.25
2022-12-14T15:10:29.713Z,99316.16
2022-12-14T15:13:02.693Z,99319.72
2022-12-14T15:15:36.901Z,99322.25
2022-12-14T15:18:22.874Z,99335.59
2022-12-14T15:20:58.608Z,99339.94
2022-12-14T15:23:36.679Z,99329.16
2022-12-14T15:26:16.288Z,99330.00
2022-12-14T15:28:48.759Z,99337.25
2022-12-14T15:31:17.131Z,99337.06
2022-12-14T15:33:48.982Z,99321.09
2022-12-14T15:36:19.099Z,99346.84
2022-12-14T15:38:55.043Z,99356.81
2022-12-14T15:41:25.996Z,99359.69
2022-12-14T15:43:59.860Z,99361.19
2022-12-14T15:46:31.013Z,99352.06
2022-12-14T15:49:01.742Z,99353.72
2022-12-14T15:51:33.259Z,99355.13
2022-12-14T15:54:04.367Z,99358.31
2022-12-14T15:56:34.712Z,99356.81
2022-12-14T15:59:05.164Z,99359.31
2022-12-14T16:01:38.348Z,99358.50
2022-12-14T16:04:12.061Z,99354.50
2022-12-14T16:06:43.394Z,99350.44
2022-12-14T16:09:21.479Z,99358.53
2022-12-14T16:11:52.306Z,99361.78
2022-12-14T16:14:24.006Z,99378.16
2022-12-14T16:16:52.527Z,99377.88
2022-12-14T16:19:29.737Z,99375.34
2022-12-14T16:22:14.337Z,99382.50
2022-12-14T16:24:59.230Z,99373.25
2022-12-14T16:27:28.024Z,99368.91
2022-12-14T16:30:07.936Z,99368.75
2022-12-14T16:32:36.144Z,99369.75
2022-12-14T16:35:06.143Z,99379.00
2022-12-14T16:37:34.594Z,99380.19
2022-12-14T16:40:02.860Z,99379.19
2022-12-14T16:42:33.135Z,99375.28
2022-12-14T16:45:01.218Z,99379.78
2022-12-14T16:48:02.205Z,99379.25
2022-12-14T16:50:55.544Z,99364.81
2022-12-14T16:53:24.506Z,99380.34
2022-12-14T16:56:03.989Z,99380.34
2022-12-14T16:58:32.251Z,99385.25
2022-12-14T17:01:03.088Z,99382.84
2022-12-14T17:03:32.060Z,99382.56
2022-12-14T17:06:05.039Z,99382.06
2022-12-14T17:08:34.427Z,99381.06
2022-12-14T17:11:03.317Z,99332.66
2022-12-14T17:13:31.688Z,99367.84
2022-12-14T17:16:02.742Z,99375.09
2022-12-14T17:18:34.254Z,99363.84
2022-12-14T17:21:04.106Z,99375.66
2022-12-14T17:23:33.318Z,99372.31
2022-12-14T17:26:01.510Z,99362.16
2022-12-14T17:28:32.720Z,99357.41
2022-12-14T17:31:01.966Z,99351.53
2022-12-14T17:33:32.494Z,99357.72
2022-12-14T17:36:00.802Z,99364.97
2022-12-14T17:38:30.120Z,99368.34
2022-12-14T17:40:58.446Z,99382.28
2022-12-14T17:43:28.514Z,99360.97
2022-12-14T17:46:00.999Z,99372.84
2022-12-14T17:48:29.670Z,99364.06
2022-12-14T17:50:57.774Z,99367.09
2022-12-14T17:53:30.193Z,99363.34
2022-12-14T17:55:59.951Z,99379.19
2022-12-14T17:58:27.890Z,99389.03
2022-12-14T18:01:02.871Z,99394.72
2022-12-14T18:03:36.172Z,99394.00
2022-12-14T18:06:05.356Z,99394.66
2022-12-14T18:08:33.455Z,99390.84
2022-12-14T18:11:11.765Z,99396.44
2022-12-14T18:13:42.231Z,99401.13
2022-12-14T18:16:13.415Z,99407.84
2022-12-14T18:18:41.834Z,99407.94
2022-12-14T18:21:17.663Z,99401.81
2022-12-14T18:23:46.269Z,99400.63
2022-12-14T18:26:21.224Z,99407.31
2022-12-14T18:28:49.763Z,99403.25
2022-12-14T18:31:23.235Z,99410.78
2022-12-14T18:33:52.494Z,99414.34
2022-12-14T18:36:22.470Z,99397.06
2022-12-14T18:38:53.303Z,99418.88
2022-12-14T18:41:26.001Z,99420.56
2022-12-14T18:43:54.814Z,99411.81
2022-12-14T18:46:23.664Z,99424.94
2022-12-14T18:48:52.251Z,99430.53
2022-12-14T18:51:23.696Z,99428.84
2022-12-14T18:53:52.646Z,99440.31
2022-12-14T18:56:23.369Z,99441.50
2022-12-14T18:58:52.048Z,99444.22
2022-12-14T19:01:23.016Z,99451.09
2022-12-14T19:03:52.048Z,99453.81
2022-12-14T19:09:12.146Z,99408.69
2022-12-14T19:11:43.818Z,99463.97
2022-12-14T19:14:13.106Z,99473.94
2022-12-14T19:16:42.394Z,99469.38
2022-12-14T19:19:11.434Z,99480.16
2022-12-14T19:21:40.423Z,99464.38
2022-12-14T19:24:10.278Z,99481.03
2022-12-14T19:26:44.607Z,99484.56
2022-12-14T19:29:21.911Z,99488.09
2022-12-14T19:31:54.200Z,99492.84
2022-12-14T19:34:27.157Z,99495.53
2022-12-14T19:36:56.142Z,99504.47
2022-12-14T19:39:28.053Z,99499.28
2022-12-14T19:42:00.787Z,99505.50
2022-12-14T19:44:33.883Z,99506.34
2022-12-14T19:47:03.336Z,99509.41
2022-12-14T19:49:31.400Z,99508.19
2022-12-14T19:52:00.300Z,99507.38
2022-12-14T19:54:31.461Z,99507.19
2022-12-14T19:57:00.341Z,99511.56
2022-12-14T19:59:30.767Z,99480.94
2022-12-14T20:01:59.902Z,99512.78
2022-12-14T20:04:28.986Z,99505.88
2022-12-14T20:06:57.615Z,99510.59
2022-12-14T20:09:26.524Z,99512.47
2022-12-14T20:11:55.417Z,99520.75
2022-12-14T20:14:27.055Z,99518.69
2022-12-14T20:16:57.216Z,99515.84
2022-12-14T20:19:26.603Z,99523.28
2022-12-14T20:21:55.559Z,99530.91
2022-12-14T20:24:23.641Z,99531.19
2022-12-14T20:26:53.793Z,99535.75
2022-12-14T20:29:22.604Z,99549.25
2022-12-14T20:31:51.082Z,99554.50
2022-12-14T20:34:21.358Z,99549.56
2022-12-14T20:36:49.892Z,99551.59
2022-12-14T20:39:18.631Z,99557.84
2022-12-14T20:41:46.633Z,99555.16
2022-12-14T20:44:16.335Z,99562.41
2022-12-14T20:46:46.896Z,99566.81
2022-12-14T20:49:17.204Z,99572.22
2022-12-14T20:51:47.883Z,99568.31
2022-12-14T20:54:18.244Z,99555.56
2022-12-14T20:56:49.200Z,99578.25
2022-12-14T20:59:17.716Z,99577.91
2022-12-14T21:01:51.735Z,99587.50
2022-12-14T21:04:23.380Z,99588.53
2022-12-14T21:06:52.708Z,99578.75
2022-12-14T21:09:20.767Z,99585.66
2022-12-14T21:12:07.839Z,99583.78
2022-12-14T21:14:37.808Z,99594.56
2022-12-14T21:17:06.482Z,99591.06
2022-12-14T21:19:35.905Z,99597.13
2022-12-14T21:22:06.160Z,99600.66
2022-12-14T21:27:26.192Z,99608.09
2022-12-14T21:29:55.013Z,99604.38
2022-12-14T21:32:24.090Z,99596.13
2022-12-14T21:34:52.276Z,99615.38
2022-12-14T21:37:22.029Z,99613.69
2022-12-14T21:39:54.601Z,99619.28
2022-12-14T21:42:22.781Z,99624.84
2022-12-14T21:44:52.526Z,99632.28
2022-12-14T21:47:23.000Z,99641.03
2022-12-14T21:49:51.061Z,99642.06
2022-12-14T21:52:22.729Z,99634.16
2022-12-14T21:54:51.173Z,99631.78
2022-12-14T21:57:38.481Z,99636.19
2022-12-14T22:00:09.152Z,99629.75
2022-12-14T22:02:41.657Z,99637.19
2022-12-14T22:05:10.478Z,99622.47
2022-12-14T22:07:39.901Z,99638.03
2022-12-14T22:10:08.664Z,99635.53
2022-12-14T22:12:36.883Z,99625.72
2022-12-14T22:15:05.329Z,99633.66
2022-12-14T22:17:33.270Z,99636.84
2022-12-14T22:20:01.202Z,99633.28
2022-12-14T22:22:29.181Z,99634.78
2022-12-14T22:24:59.664Z,99639.00
2022-12-14T22:27:27.611Z,99617.50
2022-12-14T22:29:55.581Z,99639.00
2022-12-14T22:32:23.575Z,99640.88
2022-12-14T22:34:51.562Z,99637.16
2022-12-14T22:37:19.725Z,99634.78
2022-12-14T22:39:48.376Z,99641.53
2022-12-14T22:42:18.269Z,99626.75
2022-12-14T22:44:46.387Z,99620.97
2022-12-14T22:47:14.336Z,99634.28
2022-12-14T22:49:43.327Z,99631.41
2022-12-14T22:52:11.796Z,99644.06
2022-12-14T22:54:41.158Z,99645.75
2022-12-14T22:57:14.448Z,99635.28
2022-12-14T22:59:49.582Z,99647.06
2022-12-14T23:02:18.255Z,99647.06
2022-12-14T23:04:46.424Z,99645.22
2022-12-14T23:07:18.670Z,99638.31
2022-12-14T23:10:04.615Z,99657.31
2022-12-14T23:12:50.142Z,99660.88
2022-12-14T23:15:37.179Z,99666.28
2022-12-14T23:18:24.730Z,99673.19
2022-12-14T23:21:11.070Z,99675.06
2022-12-14T23:23:56.852Z,99653.34
2022-12-14T23:26:42.092Z,99680.63
2022-12-14T23:29:27.363Z,99684.00
2022-12-14T23:32:14.671Z,99656.72
2022-12-14T23:35:00.432Z,99674.56
2022-12-14T23:37:46.276Z,99673.53
2022-12-14T23:40:32.105Z,99696.31
2022-12-14T23:43:26.688Z,99696.16
2022-12-14T23:46:12.844Z,99666.56
2022-12-14T23:49:00.079Z,99694.47
2022-12-14T23:51:45.716Z,99688.75
2022-12-14T23:54:31.504Z,99702.03
2022-12-14T23:57:17.270Z,99700.00
